sensor_id;sensor_type;location;lat;lon;timestamp;P1;durP1;ratioP1;P2;durP2;ratioP2
8413;SDS011;4244;48.684;9.028;2022-12-29T00:01:36;3.00;;;2.10;;
8413;SDS011;4244;48.684;9.028;2022-12-29T00:04:02;2.00;;;1.60;;
8413;SDS011;4244;48.684;9.028;2022-12-29T00:06:29;2.40;;;2.00;;
8413;SDS011;4244;48.684;9.028;2022-12-29T00:08:54;3.60;;;2.27;;
8413;SDS011;4244;48.684;9.028;2022-12-29T00:11:24;2.90;;;1.70;;
8413;SDS011;4244;48.684;9.028;2022-12-29T00:13:51;4.93;;;2.40;;
8413;SDS011;4244;48.684;9.028;2022-12-29T00:16:36;3.30;;;2.10;;
8413;SDS011;4244;48.684;9.028;2022-12-29T00:19:03;2.67;;;2.27;;
8413;SDS011;4244;48.684;9.028;2022-12-29T00:21:29;3.73;;;2.00;;
8413;SDS011;4244;48.684;9.028;2022-12-29T00:24:17;2.40;;;2.20;;
8413;SDS011;4244;48.684;9.028;2022-12-29T00:26:58;3.67;;;2.23;;
8413;SDS011;4244;48.684;9.028;2022-12-29T00:29:53;4.80;;;2.00;;
8413;SDS011;4244;48.684;9.028;2022-12-29T00:32:37;2.20;;;1.80;;
8413;SDS011;4244;48.684;9.028;2022-12-29T00:38:21;3.07;;;1.77;;
8413;SDS011;4244;48.684;9.028;2022-12-29T00:41:05;2.50;;;1.90;;
8413;SDS011;4244;48.684;9.028;2022-12-29T00:43:49;3.70;;;2.20;;
8413;SDS011;4244;48.684;9.028;2022-12-29T00:46:33;3.10;;;2.10;;
8413;SDS011;4244;48.684;9.028;2022-12-29T00:48:59;2.43;;;1.97;;
8413;SDS011;4244;48.684;9.028;2022-12-29T00:51:44;2.67;;;2.13;;
8413;SDS011;4244;48.684;9.028;2022-12-29T00:54:10;5.30;;;2.20;;
8413;SDS011;4244;48.684;9.028;2022-12-29T00:56:36;2.80;;;1.80;;
8413;SDS011;4244;48.684;9.028;2022-12-29T00:59:02;3.33;;;1.93;;
8413;SDS011;4244;48.684;9.028;2022-12-29T01:01:29;2.27;;;1.50;;
8413;SDS011;4244;48.684;9.028;2022-12-29T01:03:55;2.57;;;1.77;;
8413;SDS011;4244;48.684;9.028;2022-12-29T01:06:20;2.87;;;2.27;;
8413;SDS011;4244;48.684;9.028;2022-12-29T01:08:46;2.63;;;1.33;;
8413;SDS011;4244;48.684;9.028;2022-12-29T01:11:32;3.20;;;1.93;;
8413;SDS011;4244;48.684;9.028;2022-12-29T01:13:57;2.37;;;1.60;;
8413;SDS011;4244;48.684;9.028;2022-12-29T01:16:23;2.90;;;1.80;;
8413;SDS011;4244;48.684;9.028;2022-12-29T01:18:49;6.00;;;2.53;;
8413;SDS011;4244;48.684;9.028;2022-12-29T01:21:14;2.90;;;1.93;;
8413;SDS011;4244;48.684;9.028;2022-12-29T01:23:40;3.13;;;2.10;;
8413;SDS011;4244;48.684;9.028;2022-12-29T01:26:12;2.60;;;1.50;;
8413;SDS011;4244;48.684;9.028;2022-12-29T01:28:39;3.20;;;2.00;;
8413;SDS011;4244;48.684;9.028;2022-12-29T01:31:06;2.40;;;1.90;;
8413;SDS011;4244;48.684;9.028;2022-12-29T01:33:32;2.10;;;1.60;;
8413;SDS011;4244;48.684;9.028;2022-12-29T01:36:02;3.17;;;1.93;;
8413;SDS011;4244;48.684;9.028;2022-12-29T01:38:28;3.47;;;1.50;;
8413;SDS011;4244;48.684;9.028;2022-12-29T01:40:54;2.90;;;1.67;;
8413;SDS011;4244;48.684;9.028;2022-12-29T01:43:19;5.00;;;1.70;;
8413;SDS011;4244;48.684;9.028;2022-12-29T01:45:49;2.87;;;1.93;;
8413;SDS011;4244;48.684;9.028;2022-12-29T01:48:16;4.47;;;1.93;;
8413;SDS011;4244;48.684;9.028;2022-12-29T01:50:52;3.47;;;2.10;;
8413;SDS011;4244;48.684;9.028;2022-12-29T01:53:19;4.70;;;1.80;;
8413;SDS011;4244;48.684;9.028;2022-12-29T01:55:50;4.50;;;1.80;;
8413;SDS011;4244;48.684;9.028;2022-12-29T01:58:19;4.07;;;1.70;;
8413;SDS011;4244;48.684;9.028;2022-12-29T02:00:45;1.80;;;1.40;;
8413;SDS011;4244;48.684;9.028;2022-12-29T02:03:11;1.90;;;1.70;;
8413;SDS011;4244;48.684;9.028;2022-12-29T02:05:39;4.27;;;2.17;;
8413;SDS011;4244;48.684;9.028;2022-12-29T02:08:06;2.43;;;1.50;;
8413;SDS011;4244;48.684;9.028;2022-12-29T02:10:34;2.53;;;2.17;;
8413;SDS011;4244;48.684;9.028;2022-12-29T02:13:00;1.87;;;1.60;;
8413;SDS011;4244;48.684;9.028;2022-12-29T02:15:39;1.97;;;1.67;;
8413;SDS011;4244;48.684;9.028;2022-12-29T02:32:31;2.80;;;1.87;;
8413;SDS011;4244;48.684;9.028;2022-12-29T02:35:20;3.43;;;1.93;;
8413;SDS011;4244;48.684;9.028;2022-12-29T02:43:59;2.23;;;1.80;;
8413;SDS011;4244;48.684;9.028;2022-12-29T02:49:03;3.90;;;1.47;;
8413;SDS011;4244;48.684;9.028;2022-12-29T02:54:58;3.17;;;1.63;;
8413;SDS011;4244;48.684;9.028;2022-12-29T02:59:58;3.80;;;1.60;;
8413;SDS011;4244;48.684;9.028;2022-12-29T03:05:17;2.43;;;1.33;;
8413;SDS011;4244;48.684;9.028;2022-12-29T03:16:20;2.37;;;1.57;;
8413;SDS011;4244;48.684;9.028;2022-12-29T03:19:26;2.53;;;1.67;;
8413;SDS011;4244;48.684;9.028;2022-12-29T03:21:47;2.03;;;1.57;;
8413;SDS011;4244;48.684;9.028;2022-12-29T03:24:38;2.50;;;1.40;;
8413;SDS011;4244;48.684;9.028;2022-12-29T03:27:06;1.47;;;1.30;;
8413;SDS011;4244;48.684;9.028;2022-12-29T03:29:36;4.43;;;1.80;;
8413;SDS011;4244;48.684;9.028;2022-12-29T03:32:04;1.70;;;1.50;;
8413;SDS011;4244;48.684;9.028;2022-12-29T03:34:31;2.23;;;1.27;;
8413;SDS011;4244;48.684;9.028;2022-12-29T03:37:02;1.73;;;1.40;;
8413;SDS011;4244;48.684;9.028;2022-12-29T03:39:40;3.20;;;1.73;;
8413;SDS011;4244;48.684;9.028;2022-12-29T03:42:08;2.50;;;1.67;;
8413;SDS011;4244;48.684;9.028;2022-12-29T03:44:42;3.87;;;1.80;;
8413;SDS011;4244;48.684;9.028;2022-12-29T03:47:10;5.53;;;1.67;;
8413;SDS011;4244;48.684;9.028;2022-12-29T03:49:36;2.53;;;1.47;;
8413;SDS011;4244;48.684;9.028;2022-12-29T03:52:02;3.83;;;1.90;;
8413;SDS011;4244;48.684;9.028;2022-12-29T03:54:29;2.20;;;1.23;;
8413;SDS011;4244;48.684;9.028;2022-12-29T03:56:54;1.80;;;1.50;;
8413;SDS011;4244;48.684;9.028;2022-12-29T03:59:20;5.40;;;1.53;;
8413;SDS011;4244;48.684;9.028;2022-12-29T04:01:46;2.97;;;1.37;;
8413;SDS011;4244;48.684;9.028;2022-12-29T04:04:12;3.03;;;1.30;;
8413;SDS011;4244;48.684;9.028;2022-12-29T04:06:38;2.40;;;1.50;;
8413;SDS011;4244;48.684;9.028;2022-12-29T04:09:03;2.50;;;1.50;;
8413;SDS011;4244;48.684;9.028;2022-12-29T04:11:29;2.53;;;1.50;;
8413;SDS011;4244;48.684;9.028;2022-12-29T04:13:55;2.47;;;1.77;;
8413;SDS011;4244;48.684;9.028;2022-12-29T04:16:21;1.73;;;1.33;;
8413;SDS011;4244;48.684;9.028;2022-12-29T04:18:46;2.87;;;1.50;;
8413;SDS011;4244;48.684;9.028;2022-12-29T04:21:12;2.30;;;1.97;;
8413;SDS011;4244;48.684;9.028;2022-12-29T04:23:38;3.60;;;1.80;;
8413;SDS011;4244;48.684;9.028;2022-12-29T04:26:04;2.30;;;1.70;;
8413;SDS011;4244;48.684;9.028;2022-12-29T04:28:34;2.30;;;1.57;;
8413;SDS011;4244;48.684;9.028;2022-12-29T04:31:00;2.00;;;1.30;;
8413;SDS011;4244;48.684;9.028;2022-12-29T04:33:27;2.30;;;1.80;;
8413;SDS011;4244;48.684;9.028;2022-12-29T04:35:53;4.10;;;2.00;;
8413;SDS011;4244;48.684;9.028;2022-12-29T04:38:19;2.43;;;1.77;;
8413;SDS011;4244;48.684;9.028;2022-12-29T04:40:45;2.50;;;1.53;;
8413;SDS011;4244;48.684;9.028;2022-12-29T04:43:11;2.97;;;1.70;;
8413;SDS011;4244;48.684;9.028;2022-12-29T04:45:38;2.60;;;1.80;;
8413;SDS011;4244;48.684;9.028;2022-12-29T04:48:13;2.40;;;1.50;;
8413;SDS011;4244;48.684;9.028;2022-12-29T04:50:39;2.90;;;1.83;;
8413;SDS011;4244;48.684;9.028;2022-12-29T04:53:05;2.27;;;1.90;;
8413;SDS011;4244;48.684;9.028;2022-12-29T04:55:31;3.07;;;1.97;;
8413;SDS011;4244;48.684;9.028;2022-12-29T04:58:06;2.43;;;2.00;;
8413;SDS011;4244;48.684;9.028;2022-12-29T05:00:32;5.50;;;1.90;;
8413;SDS011;4244;48.684;9.028;2022-12-29T05:02:58;3.70;;;1.73;;
8413;SDS011;4244;48.684;9.028;2022-12-29T05:05:24;3.03;;;1.57;;
8413;SDS011;4244;48.684;9.028;2022-12-29T05:07:49;2.37;;;1.93;;
8413;SDS011;4244;48.684;9.028;2022-12-29T05:10:15;2.80;;;1.60;;
8413;SDS011;4244;48.684;9.028;2022-12-29T05:12:41;4.80;;;1.53;;
8413;SDS011;4244;48.684;9.028;2022-12-29T05:15:08;3.23;;;2.03;;
8413;SDS011;4244;48.684;9.028;2022-12-29T05:17:34;4.23;;;2.27;;
8413;SDS011;4244;48.684;9.028;2022-12-29T05:20:00;2.47;;;1.60;;
8413;SDS011;4244;48.684;9.028;2022-12-29T05:22:26;3.23;;;2.30;;
8413;SDS011;4244;48.684;9.028;2022-12-29T05:24:52;2.40;;;1.90;;
8413;SDS011;4244;48.684;9.028;2022-12-29T05:27:19;2.97;;;1.60;;
8413;SDS011;4244;48.684;9.028;2022-12-29T05:29:44;4.40;;;2.27;;
8413;SDS011;4244;48.684;9.028;2022-12-29T05:32:10;2.30;;;1.90;;
8413;SDS011;4244;48.684;9.028;2022-12-29T05:34:35;4.20;;;2.30;;
8413;SDS011;4244;48.684;9.028;2022-12-29T05:37:01;2.70;;;2.20;;
8413;SDS011;4244;48.684;9.028;2022-12-29T05:39:27;3.60;;;2.37;;
8413;SDS011;4244;48.684;9.028;2022-12-29T05:41:54;2.40;;;1.80;;
8413;SDS011;4244;48.684;9.028;2022-12-29T05:44:19;2.50;;;1.87;;
8413;SDS011;4244;48.684;9.028;2022-12-29T05:46:45;3.03;;;2.10;;
8413;SDS011;4244;48.684;9.028;2022-12-29T05:49:11;2.90;;;2.30;;
8413;SDS011;4244;48.684;9.028;2022-12-29T05:51:36;4.90;;;2.03;;
8413;SDS011;4244;48.684;9.028;2022-12-29T05:54:02;4.67;;;2.00;;
8413;SDS011;4244;48.684;9.028;2022-12-29T05:56:28;2.43;;;1.97;;
8413;SDS011;4244;48.684;9.028;2022-12-29T05:58:53;3.17;;;2.10;;
8413;SDS011;4244;48.684;9.028;2022-12-29T06:01:19;5.60;;;1.90;;
8413;SDS011;4244;48.684;9.028;2022-12-29T06:03:45;1.93;;;1.53;;
8413;SDS011;4244;48.684;9.028;2022-12-29T06:06:10;2.03;;;1.63;;
8413;SDS011;4244;48.684;9.028;2022-12-29T06:08:36;2.30;;;1.63;;
8413;SDS011;4244;48.684;9.028;2022-12-29T06:11:02;3.07;;;1.50;;
8413;SDS011;4244;48.684;9.028;2022-12-29T06:13:28;3.97;;;2.30;;
8413;SDS011;4244;48.684;9.028;2022-12-29T06:15:53;3.00;;;1.90;;
8413;SDS011;4244;48.684;9.028;2022-12-29T06:18:19;2.03;;;1.70;;
8413;SDS011;4244;48.684;9.028;2022-12-29T06:20:45;2.37;;;1.70;;
8413;SDS011;4244;48.684;9.028;2022-12-29T06:23:11;2.30;;;1.50;;
8413;SDS011;4244;48.684;9.028;2022-12-29T06:25:39;3.27;;;2.00;;
8413;SDS011;4244;48.684;9.028;2022-12-29T06:28:05;2.00;;;1.60;;
8413;SDS011;4244;48.684;9.028;2022-12-29T06:30:31;6.97;;;3.03;;
8413;SDS011;4244;48.684;9.028;2022-12-29T06:32:58;78.30;;;24.97;;
8413;SDS011;4244;48.684;9.028;2022-12-29T06:35:23;46.63;;;13.10;;
8413;SDS011;4244;48.684;9.028;2022-12-29T06:37:49;36.87;;;10.07;;
8413;SDS011;4244;48.684;9.028;2022-12-29T06:40:15;20.13;;;6.87;;
8413;SDS011;4244;48.684;9.028;2022-12-29T06:42:41;20.00;;;6.23;;
8413;SDS011;4244;48.684;9.028;2022-12-29T06:45:06;17.20;;;3.90;;
8413;SDS011;4244;48.684;9.028;2022-12-29T06:47:33;11.33;;;3.70;;
8413;SDS011;4244;48.684;9.028;2022-12-29T06:49:59;7.80;;;2.77;;
8413;SDS011;4244;48.684;9.028;2022-12-29T06:52:25;5.47;;;3.13;;
8413;SDS011;4244;48.684;9.028;2022-12-29T06:54:51;3.77;;;1.73;;
8413;SDS011;4244;48.684;9.028;2022-12-29T06:57:16;3.23;;;1.93;;
8413;SDS011;4244;48.684;9.028;2022-12-29T06:59:42;2.80;;;1.83;;
8413;SDS011;4244;48.684;9.028;2022-12-29T07:02:09;2.30;;;1.73;;
8413;SDS011;4244;48.684;9.028;2022-12-29T07:04:35;3.10;;;1.80;;
8413;SDS011;4244;48.684;9.028;2022-12-29T07:07:01;2.53;;;1.60;;
8413;SDS011;4244;48.684;9.028;2022-12-29T07:09:27;2.83;;;1.63;;
8413;SDS011;4244;48.684;9.028;2022-12-29T07:11:52;3.93;;;1.80;;
8413;SDS011;4244;48.684;9.028;2022-12-29T07:14:18;1.83;;;1.30;;
8413;SDS011;4244;48.684;9.028;2022-12-29T07:16:44;3.33;;;1.97;;
8413;SDS011;4244;48.684;9.028;2022-12-29T07:19:09;2.03;;;1.63;;
8413;SDS011;4244;48.684;9.028;2022-12-29T07:21:35;2.20;;;1.80;;
8413;SDS011;4244;48.684;9.028;2022-12-29T07:24:01;2.40;;;1.43;;
8413;SDS011;4244;48.684;9.028;2022-12-29T07:26:26;2.67;;;1.87;;
8413;SDS011;4244;48.684;9.028;2022-12-29T07:28:53;4.23;;;1.73;;
8413;SDS011;4244;48.684;9.028;2022-12-29T07:31:20;5.43;;;1.60;;
8413;SDS011;4244;48.684;9.028;2022-12-29T07:33:47;2.37;;;1.57;;
8413;SDS011;4244;48.684;9.028;2022-12-29T07:36:13;2.23;;;1.40;;
8413;SDS011;4244;48.684;9.028;2022-12-29T07:38:39;2.00;;;1.50;;
8413;SDS011;4244;48.684;9.028;2022-12-29T07:41:06;2.80;;;1.77;;
8413;SDS011;4244;48.684;9.028;2022-12-29T07:43:32;3.00;;;1.87;;
8413;SDS011;4244;48.684;9.028;2022-12-29T07:45:58;2.67;;;1.77;;
8413;SDS011;4244;48.684;9.028;2022-12-29T07:48:23;3.80;;;2.00;;
8413;SDS011;4244;48.684;9.028;2022-12-29T07:50:49;2.93;;;1.73;;
8413;SDS011;4244;48.684;9.028;2022-12-29T07:53:15;2.10;;;1.80;;
8413;SDS011;4244;48.684;9.028;2022-12-29T07:55:41;2.17;;;1.60;;
8413;SDS011;4244;48.684;9.028;2022-12-29T07:58:07;1.77;;;1.63;;
8413;SDS011;4244;48.684;9.028;2022-12-29T08:00:33;3.30;;;2.13;;
8413;SDS011;4244;48.684;9.028;2022-12-29T08:02:58;2.00;;;1.80;;
8413;SDS011;4244;48.684;9.028;2022-12-29T08:05:24;1.90;;;1.40;;
8413;SDS011;4244;48.684;9.028;2022-12-29T08:07:50;2.50;;;1.90;;
8413;SDS011;4244;48.684;9.028;2022-12-29T08:10:16;2.03;;;1.77;;
8413;SDS011;4244;48.684;9.028;2022-12-29T08:12:42;2.70;;;1.97;;
8413;SDS011;4244;48.684;9.028;2022-12-29T08:15:09;2.13;;;1.70;;
8413;SDS011;4244;48.684;9.028;2022-12-29T08:17:35;2.70;;;2.20;;
8413;SDS011;4244;48.684;9.028;2022-12-29T08:20:01;2.70;;;1.63;;
8413;SDS011;4244;48.684;9.028;2022-12-29T08:22:27;2.23;;;2.03;;
8413;SDS011;4244;48.684;9.028;2022-12-29T08:24:53;3.57;;;2.20;;
8413;SDS011;4244;48.684;9.028;2022-12-29T08:27:18;2.13;;;1.60;;
8413;SDS011;4244;48.684;9.028;2022-12-29T08:29:44;3.57;;;1.70;;
8413;SDS011;4244;48.684;9.028;2022-12-29T08:32:10;2.33;;;2.10;;
8413;SDS011;4244;48.684;9.028;2022-12-29T08:34:36;2.27;;;1.50;;
8413;SDS011;4244;48.684;9.028;2022-12-29T08:37:02;2.97;;;2.00;;
8413;SDS011;4244;48.684;9.028;2022-12-29T08:39:27;2.57;;;1.80;;
8413;SDS011;4244;48.684;9.028;2022-12-29T08:41:53;1.90;;;1.70;;
8413;SDS011;4244;48.684;9.028;2022-12-29T08:44:19;3.57;;;2.23;;
8413;SDS011;4244;48.684;9.028;2022-12-29T08:46:45;3.20;;;1.70;;
8413;SDS011;4244;48.684;9.028;2022-12-29T08:49:10;3.63;;;1.83;;
8413;SDS011;4244;48.684;9.028;2022-12-29T08:51:36;2.27;;;1.43;;
8413;SDS011;4244;48.684;9.028;2022-12-29T08:54:02;2.57;;;1.97;;
8413;SDS011;4244;48.684;9.028;2022-12-29T08:56:28;2.23;;;1.70;;
8413;SDS011;4244;48.684;9.028;2022-12-29T08:58:54;4.07;;;1.90;;
8413;SDS011;4244;48.684;9.028;2022-12-29T09:01:20;2.20;;;1.63;;
8413;SDS011;4244;48.684;9.028;2022-12-29T09:03:46;3.57;;;2.20;;
8413;SDS011;4244;48.684;9.028;2022-12-29T09:06:12;3.10;;;1.70;;
8413;SDS011;4244;48.684;9.028;2022-12-29T09:08:38;2.67;;;1.70;;
8413;SDS011;4244;48.684;9.028;2022-12-29T09:11:08;3.10;;;2.07;;
8413;SDS011;4244;48.684;9.028;2022-12-29T09:13:36;2.73;;;1.53;;
8413;SDS011;4244;48.684;9.028;2022-12-29T09:16:02;5.80;;;2.00;;
8413;SDS011;4244;48.684;9.028;2022-12-29T09:18:28;2.40;;;1.70;;
8413;SDS011;4244;48.684;9.028;2022-12-29T09:21:00;3.70;;;1.87;;
8413;SDS011;4244;48.684;9.028;2022-12-29T09:23:27;2.20;;;1.70;;
8413;SDS011;4244;48.684;9.028;2022-12-29T09:25:53;3.93;;;1.90;;
8413;SDS011;4244;48.684;9.028;2022-12-29T09:28:19;2.60;;;1.70;;
8413;SDS011;4244;48.684;9.028;2022-12-29T09:30:45;3.10;;;1.40;;
8413;SDS011;4244;48.684;9.028;2022-12-29T09:33:11;2.87;;;1.50;;
8413;SDS011;4244;48.684;9.028;2022-12-29T09:35:36;1.80;;;1.37;;
8413;SDS011;4244;48.684;9.028;2022-12-29T09:38:02;3.30;;;1.33;;
8413;SDS011;4244;48.684;9.028;2022-12-29T09:40:29;6.30;;;1.67;;
8413;SDS011;4244;48.684;9.028;2022-12-29T09:45:48;3.27;;;2.10;;
8413;SDS011;4244;48.684;9.028;2022-12-29T09:48:29;2.80;;;1.80;;
8413;SDS011;4244;48.684;9.028;2022-12-29T09:51:00;3.07;;;1.43;;
8413;SDS011;4244;48.684;9.028;2022-12-29T09:53:33;1.70;;;1.53;;
8413;SDS011;4244;48.684;9.028;2022-12-29T09:56:03;2.40;;;1.90;;
8413;SDS011;4244;48.684;9.028;2022-12-29T09:59:32;2.53;;;1.70;;
8413;SDS011;4244;48.684;9.028;2022-12-29T10:01:41;2.90;;;1.40;;
8413;SDS011;4244;48.684;9.028;2022-12-29T10:04:11;1.93;;;1.50;;
8413;SDS011;4244;48.684;9.028;2022-12-29T10:22:55;2.50;;;1.80;;
8413;SDS011;4244;48.684;9.028;2022-12-29T10:25:26;2.10;;;1.60;;
8413;SDS011;4244;48.684;9.028;2022-12-29T10:27:56;3.77;;;1.90;;
8413;SDS011;4244;48.684;9.028;2022-12-29T10:30:24;2.27;;;1.70;;
8413;SDS011;4244;48.684;9.028;2022-12-29T10:33:00;2.33;;;2.00;;
8413;SDS011;4244;48.684;9.028;2022-12-29T10:35:32;4.23;;;2.00;;
8413;SDS011;4244;48.684;9.028;2022-12-29T10:38:26;4.70;;;2.00;;
8413;SDS011;4244;48.684;9.028;2022-12-29T10:40:57;3.83;;;2.00;;
8413;SDS011;4244;48.684;9.028;2022-12-29T10:43:41;3.63;;;1.60;;
8413;SDS011;4244;48.684;9.028;2022-12-29T10:46:13;2.20;;;1.67;;
8413;SDS011;4244;48.684;9.028;2022-12-29T10:48:41;3.50;;;1.87;;
8413;SDS011;4244;48.684;9.028;2022-12-29T10:51:10;2.90;;;1.53;;
8413;SDS011;4244;48.684;9.028;2022-12-29T10:53:38;2.20;;;1.90;;
8413;SDS011;4244;48.684;9.028;2022-12-29T10:56:11;2.60;;;1.40;;
8413;SDS011;4244;48.684;9.028;2022-12-29T10:58:48;2.80;;;1.57;;
8413;SDS011;4244;48.684;9.028;2022-12-29T11:01:15;3.00;;;1.80;;
8413;SDS011;4244;48.684;9.028;2022-12-29T11:03:54;3.00;;;1.83;;
8413;SDS011;4244;48.684;9.028;2022-12-29T11:06:28;3.10;;;2.00;;
8413;SDS011;4244;48.684;9.028;2022-12-29T11:09:14;2.50;;;1.77;;
8413;SDS011;4244;48.684;9.028;2022-12-29T11:11:41;3.30;;;2.13;;
8413;SDS011;4244;48.684;9.028;2022-12-29T11:16:41;4.90;;;1.73;;
8413;SDS011;4244;48.684;9.028;2022-12-29T11:19:21;2.30;;;1.73;;
8413;SDS011;4244;48.684;9.028;2022-12-29T11:21:48;3.37;;;2.00;;
8413;SDS011;4244;48.684;9.028;2022-12-29T11:24:32;2.17;;;1.50;;
8413;SDS011;4244;48.684;9.028;2022-12-29T11:27:13;3.53;;;1.80;;
8413;SDS011;4244;48.684;9.028;2022-12-29T11:29:45;2.63;;;1.70;;
8413;SDS011;4244;48.684;9.028;2022-12-29T11:32:18;2.20;;;1.80;;
8413;SDS011;4244;48.684;9.028;2022-12-29T11:34:48;3.07;;;1.73;;
8413;SDS011;4244;48.684;9.028;2022-12-29T11:39:48;2.10;;;1.60;;
8413;SDS011;4244;48.684;9.028;2022-12-29T11:42:19;4.53;;;1.70;;
8413;SDS011;4244;48.684;9.028;2022-12-29T11:44:50;2.77;;;1.80;;
8413;SDS011;4244;48.684;9.028;2022-12-29T11:47:35;1.93;;;1.63;;
8413;SDS011;4244;48.684;9.028;2022-12-29T11:50:03;2.17;;;1.77;;
8413;SDS011;4244;48.684;9.028;2022-12-29T11:52:31;2.83;;;1.30;;
8413;SDS011;4244;48.684;9.028;2022-12-29T11:55:00;1.97;;;1.20;;
8413;SDS011;4244;48.684;9.028;2022-12-29T11:57:28;2.47;;;1.27;;
8413;SDS011;4244;48.684;9.028;2022-12-29T11:59:54;2.37;;;1.40;;
8413;SDS011;4244;48.684;9.028;2022-12-29T12:05:09;2.40;;;1.30;;
8413;SDS011;4244;48.684;9.028;2022-12-29T12:07:47;2.63;;;1.60;;
8413;SDS011;4244;48.684;9.028;2022-12-29T12:10:25;2.20;;;1.97;;
8413;SDS011;4244;48.684;9.028;2022-12-29T12:13:16;2.20;;;1.70;;
8413;SDS011;4244;48.684;9.028;2022-12-29T12:15:54;2.70;;;1.60;;
8413;SDS011;4244;48.684;9.028;2022-12-29T12:18:30;2.07;;;1.67;;
8413;SDS011;4244;48.684;9.028;2022-12-29T12:27:24;3.80;;;1.40;;
8413;SDS011;4244;48.684;9.028;2022-12-29T12:29:57;3.47;;;2.00;;
8413;SDS011;4244;48.684;9.028;2022-12-29T12:32:35;2.03;;;1.83;;
8413;SDS011;4244;48.684;9.028;2022-12-29T12:41:33;2.90;;;2.10;;
8413;SDS011;4244;48.684;9.028;2022-12-29T12:44:15;5.30;;;2.30;;
8413;SDS011;4244;48.684;9.028;2022-12-29T12:46:52;2.80;;;1.80;;
8413;SDS011;4244;48.684;9.028;2022-12-29T12:56:15;3.10;;;1.87;;
8413;SDS011;4244;48.684;9.028;2022-12-29T13:02:01;6.73;;;2.20;;
8413;SDS011;4244;48.684;9.028;2022-12-29T13:04:52;2.60;;;2.00;;
8413;SDS011;4244;48.684;9.028;2022-12-29T13:10:49;2.80;;;1.97;;
8413;SDS011;4244;48.684;9.028;2022-12-29T13:16:13;3.50;;;1.77;;
8413;SDS011;4244;48.684;9.028;2022-12-29T13:23:56;2.07;;;1.70;;
8413;SDS011;4244;48.684;9.028;2022-12-29T13:26:35;2.07;;;1.50;;
8413;SDS011;4244;48.684;9.028;2022-12-29T13:36:54;5.60;;;2.33;;
8413;SDS011;4244;48.684;9.028;2022-12-29T13:42:06;3.40;;;1.80;;
8413;SDS011;4244;48.684;9.028;2022-12-29T13:44:34;2.43;;;2.00;;
8413;SDS011;4244;48.684;9.028;2022-12-29T13:50:00;4.37;;;2.60;;
8413;SDS011;4244;48.684;9.028;2022-12-29T13:52:39;2.20;;;2.00;;
8413;SDS011;4244;48.684;9.028;2022-12-29T14:04:32;3.13;;;1.97;;
8413;SDS011;4244;48.684;9.028;2022-12-29T14:07:12;2.37;;;1.83;;
8413;SDS011;4244;48.684;9.028;2022-12-29T14:09:42;2.50;;;2.10;;
8413;SDS011;4244;48.684;9.028;2022-12-29T14:15:04;2.10;;;1.80;;
8413;SDS011;4244;48.684;9.028;2022-12-29T14:17:45;2.67;;;2.10;;
8413;SDS011;4244;48.684;9.028;2022-12-29T14:20:37;2.00;;;1.80;;
8413;SDS011;4244;48.684;9.028;2022-12-29T14:28:23;4.67;;;1.90;;
8413;SDS011;4244;48.684;9.028;2022-12-29T14:30:57;2.50;;;1.77;;
8413;SDS011;4244;48.684;9.028;2022-12-29T14:33:25;3.40;;;2.00;;
8413;SDS011;4244;48.684;9.028;2022-12-29T14:35:52;2.20;;;1.47;;
8413;SDS011;4244;48.684;9.028;2022-12-29T14:38:22;2.47;;;1.50;;
8413;SDS011;4244;48.684;9.028;2022-12-29T14:40:50;2.20;;;2.00;;
8413;SDS011;4244;48.684;9.028;2022-12-29T14:43:20;2.50;;;2.03;;
8413;SDS011;4244;48.684;9.028;2022-12-29T14:45:54;2.10;;;1.63;;
8413;SDS011;4244;48.684;9.028;2022-12-29T14:48:28;3.40;;;2.03;;
8413;SDS011;4244;48.684;9.028;2022-12-29T14:50:57;3.80;;;2.17;;
8413;SDS011;4244;48.684;9.028;2022-12-29T14:53:43;2.20;;;1.70;;
8413;SDS011;4244;48.684;9.028;2022-12-29T14:56:14;3.30;;;1.77;;
8413;SDS011;4244;48.684;9.028;2022-12-29T14:58:46;1.87;;;1.63;;
8413;SDS011;4244;48.684;9.028;2022-12-29T15:01:20;3.03;;;2.00;;
8413;SDS011;4244;48.684;9.028;2022-12-29T15:06:40;3.47;;;2.27;;
8413;SDS011;4244;48.684;9.028;2022-12-29T15:11:58;2.87;;;2.10;;
8413;SDS011;4244;48.684;9.028;2022-12-29T15:16:56;3.73;;;2.10;;
8413;SDS011;4244;48.684;9.028;2022-12-29T15:19:23;3.33;;;1.83;;
8413;SDS011;4244;48.684;9.028;2022-12-29T15:21:50;2.77;;;1.90;;
8413;SDS011;4244;48.684;9.028;2022-12-29T15:24:18;3.17;;;2.47;;
8413;SDS011;4244;48.684;9.028;2022-12-29T15:26:45;2.20;;;2.00;;
8413;SDS011;4244;48.684;9.028;2022-12-29T15:29:28;2.90;;;2.17;;
8413;SDS011;4244;48.684;9.028;2022-12-29T15:31:59;3.33;;;3.03;;
8413;SDS011;4244;48.684;9.028;2022-12-29T15:34:29;3.80;;;2.30;;
8413;SDS011;4244;48.684;9.028;2022-12-29T15:36:55;3.47;;;2.70;;
8413;SDS011;4244;48.684;9.028;2022-12-29T15:39:28;3.50;;;2.30;;
8413;SDS011;4244;48.684;9.028;2022-12-29T15:42:56;2.37;;;1.93;;
8413;SDS011;4244;48.684;9.028;2022-12-29T15:45:10;3.30;;;2.37;;
8413;SDS011;4244;48.684;9.028;2022-12-29T15:47:36;4.43;;;2.30;;
8413;SDS011;4244;48.684;9.028;2022-12-29T15:50:05;2.43;;;2.23;;
8413;SDS011;4244;48.684;9.028;2022-12-29T15:52:50;2.77;;;2.10;;
8413;SDS011;4244;48.684;9.028;2022-12-29T15:57:59;3.50;;;2.50;;
8413;SDS011;4244;48.684;9.028;2022-12-29T16:00:27;3.33;;;2.60;;
8413;SDS011;4244;48.684;9.028;2022-12-29T16:02:53;3.60;;;2.60;;
8413;SDS011;4244;48.684;9.028;2022-12-29T16:05:21;3.50;;;2.33;;
8413;SDS011;4244;48.684;9.028;2022-12-29T16:07:57;6.00;;;3.57;;
8413;SDS011;4244;48.684;9.028;2022-12-29T16:13:03;2.47;;;1.93;;
8413;SDS011;4244;48.684;9.028;2022-12-29T16:15:45;2.93;;;1.90;;
8413;SDS011;4244;48.684;9.028;2022-12-29T16:18:17;2.80;;;1.83;;
8413;SDS011;4244;48.684;9.028;2022-12-29T16:20:55;2.23;;;1.93;;
8413;SDS011;4244;48.684;9.028;2022-12-29T16:23:23;1.90;;;1.40;;
8413;SDS011;4244;48.684;9.028;2022-12-29T16:25:51;4.17;;;1.80;;
8413;SDS011;4244;48.684;9.028;2022-12-29T16:28:22;2.40;;;1.80;;
8413;SDS011;4244;48.684;9.028;2022-12-29T16:31:03;2.17;;;1.30;;
8413;SDS011;4244;48.684;9.028;2022-12-29T16:33:38;2.40;;;2.00;;
8413;SDS011;4244;48.684;9.028;2022-12-29T16:36:31;2.80;;;1.47;;
8413;SDS011;4244;48.684;9.028;2022-12-29T16:41:53;2.73;;;2.40;;
8413;SDS011;4244;48.684;9.028;2022-12-29T16:46:57;2.37;;;1.70;;
8413;SDS011;4244;48.684;9.028;2022-12-29T16:49:26;3.23;;;2.00;;
8413;SDS011;4244;48.684;9.028;2022-12-29T16:51:55;2.80;;;1.60;;
8413;SDS011;4244;48.684;9.028;2022-12-29T16:54:25;3.00;;;1.87;;
8413;SDS011;4244;48.684;9.028;2022-12-29T16:56:59;4.37;;;2.00;;
8413;SDS011;4244;48.684;9.028;2022-12-29T17:02:15;3.10;;;1.47;;
8413;SDS011;4244;48.684;9.028;2022-12-29T17:04:41;3.90;;;1.40;;
8413;SDS011;4244;48.684;9.028;2022-12-29T17:07:15;2.53;;;1.27;;
8413;SDS011;4244;48.684;9.028;2022-12-29T17:09:45;4.60;;;2.80;;
8413;SDS011;4244;48.684;9.028;2022-12-29T17:12:18;9.10;;;6.33;;
8413;SDS011;4244;48.684;9.028;2022-12-29T17:19:59;6.33;;;4.80;;
8413;SDS011;4244;48.684;9.028;2022-12-29T17:22:28;5.90;;;4.40;;
8413;SDS011;4244;48.684;9.028;2022-12-29T17:24:58;4.67;;;4.17;;
8413;SDS011;4244;48.684;9.028;2022-12-29T17:30:11;4.53;;;4.07;;
8413;SDS011;4244;48.684;9.028;2022-12-29T17:32:55;5.43;;;4.00;;
8413;SDS011;4244;48.684;9.028;2022-12-29T17:35:24;4.80;;;4.17;;
8413;SDS011;4244;48.684;9.028;2022-12-29T17:37:50;5.50;;;4.63;;
8413;SDS011;4244;48.684;9.028;2022-12-29T17:40:17;5.00;;;4.50;;
8413;SDS011;4244;48.684;9.028;2022-12-29T17:42:45;7.70;;;4.90;;
8413;SDS011;4244;48.684;9.028;2022-12-29T17:45:16;8.43;;;5.90;;
8413;SDS011;4244;48.684;9.028;2022-12-29T17:47:44;9.03;;;6.47;;
8413;SDS011;4244;48.684;9.028;2022-12-29T17:50:13;10.70;;;6.23;;
8413;SDS011;4244;48.684;9.028;2022-12-29T17:52:40;10.43;;;7.13;;
8413;SDS011;4244;48.684;9.028;2022-12-29T17:55:12;8.33;;;6.03;;
8413;SDS011;4244;48.684;9.028;2022-12-29T17:57:41;8.83;;;6.10;;
8413;SDS011;4244;48.684;9.028;2022-12-29T18:00:08;8.90;;;5.70;;
8413;SDS011;4244;48.684;9.028;2022-12-29T18:02:48;8.60;;;5.67;;
8413;SDS011;4244;48.684;9.028;2022-12-29T18:05:19;8.70;;;5.60;;
8413;SDS011;4244;48.684;9.028;2022-12-29T18:07:53;7.00;;;5.20;;
8413;SDS011;4244;48.684;9.028;2022-12-29T18:10:21;5.90;;;4.97;;
8413;SDS011;4244;48.684;9.028;2022-12-29T18:12:47;6.40;;;5.30;;
8413;SDS011;4244;48.684;9.028;2022-12-29T18:15:25;7.33;;;5.90;;
8413;SDS011;4244;48.684;9.028;2022-12-29T18:17:57;7.63;;;6.43;;